This is the latest recevied weather packets stored in our database for station/object FW4141. If no packets are shown the sender has not sent any weather packets the latest 10 day(s).
| Time | Temp. | Humidity | Pressure | Rain* | Wind** | Luminosity | Snow |
|---|---|---|---|---|---|---|---|
| 1778131833 | 8.33° C | 86% | 1003 hPa | 0.51 mm | - | - | - |
| 1778130647 | 8.33° C | 85% | 1002.9 hPa | 0.25 mm | - | - | - |
| 1778126460 | 8.89° C | 82% | 1002.6 hPa | 0 mm | - | - | - |
| 1778122839 | 9.44° C | 82% | 1001.8 hPa | 0 mm | - | - | - |
| 1778116863 | 10.56° C | 80% | 1001.4 hPa | 0 mm | - | - | - |
| 1778116260 | 10.56° C | 80% | 1001.4 hPa | 0 mm | - | - | - |
| 1778115656 | 10.56° C | 80% | 1001.4 hPa | 0 mm | - | - | - |
| 1778114449 | 10.56° C | 79% | 1001.3 hPa | 0 mm | - | - | - |
| 1778110828 | 11.11° C | 80% | 1001.1 hPa | 0 mm | - | - | - |
| 1778103676 | 11.67° C | 80% | 1001.1 hPa | 0 mm | - | - | - |
| 1778100056 | 11.67° C | 80% | 1001.2 hPa | 0 mm | - | - | - |
| 1778098289 | 11.67° C | 80% | 1000.5 hPa | 0 mm | - | - | - |
| 1778097077 | 11.67° C | 79% | 1000.5 hPa | 0 mm | - | - | - |
| 1778092847 | 12.78° C | 72% | 1000.2 hPa | 0 mm | - | - | - |
| 1778091674 | 13.33° C | 71% | 999.9 hPa | 0 mm | - | - | - |
| 1778091028 | 13.89° C | 70% | 999.8 hPa | 0 mm | - | - | - |
| 1778079074 | 22.78° C | 41% | 998.2 hPa | 0 mm | - | - | - |
| 1778077868 | 25° C | 40% | 998.1 hPa | 0 mm | - | - | - |
| 1778076662 | 23.89° C | 41% | 998.1 hPa | 0 mm | - | - | - |
| 1778056258 | 18.89° C | 62% | 997.4 hPa | 0 mm | - | - | - |
| 1778053843 | 16.11° C | 68% | 997.7 hPa | 0 mm | - | - | - |
| 1778052667 | 16.11° C | 70% | 997.6 hPa | 0 mm | - | - | - |
| 1778049624 | 15° C | 71% | 997.8 hPa | 0 mm | - | - | - |
| 1778047940 | 12.78° C | 80% | 997.7 hPa | 0 mm | - | - | - |
| 1778046661 | 12.22° C | 84% | 997.7 hPa | 0 mm | - | - | - |
* Rain latest hour (hover to see other rain measurements)
** Current wind speed in m/s (hover to see current wind gust speed)